Craigsville, WV (26205)

3:12 PM EDT on September 03, 2015 (GMT -0400)
The Family Center | | Change Station
CLOSE
Current Station
Personal Weather Station
Location: Richwood, WV
Elevation: 2192 ft
Nearby Weather Stations

Elev 2192 ft 38.22 °N, 80.53 °W | Updated 16 seconds ago

Mostly Cloudy
Mostly Cloudy
83.4 °F
Feels Like 86 °F
N
8.0
Wind Variable Wind from East
Gusts 12.0 mph

Today
High -- | Low -- °F
--% Chance of Precip.
Yesterday
High -- | Low -- °F
Precip. -- in
6:53 AM 7:49 PM
Waning Gibbous, 68% visible
Pressure 30.04 in
Visibility 10.0 miles
Clouds Scattered Clouds 4700 ft
Mostly Cloudy 6000 ft
Mostly Cloudy 6500 ft
Heat Index 86 °F
Dew Point 68 °F
Humidity 59%
Rainfall 0.00 in
Snow Depth Not available.
UV 4 out of 12
Pollen 9.60 out of 12
Air Quality Not available.
Flu Activity Not available.
METAR KLWB 031855Z AUTO 32007KT 10SM VCTS SCT047 BKN060 BKN065 29/16 A3004 RMK AO2 LTG DSNT S T02930161
Pressure 30.04 in
Visibility 10.0 miles
Clouds Scattered Clouds 4700 ft
Mostly Cloudy 6000 ft
Mostly Cloudy 6500 ft
Heat Index 86 °F
Dew Point 68 °F
Humidity 59%
Rainfall 0.00 in
Snow Depth Not available.
UV 4 out of 12
Pollen 9.60 out of 12
Air Quality Not available.
Flu Activity Not available.
METAR KLWB 031855Z AUTO 32007KT 10SM VCTS SCT047 BKN060 BKN065 29/16 A3004 RMK AO2 LTG DSNT S T02930161

10-Day Weather Forecast

×

Almanac

Astronomy

Sep. 03, 2015 Rise Set
Actual Time
Civil Twilight
Nautical Twilight
Astronomical Twilight
Moon
Length of Visible Light
Length of Day
Tomorrow will be .
, % of the Moon is Illuminated

Today's Extremes

State Highs State Lows

Community

WunderPhotos

Upload Photos

1,852,014 photos uploaded!

WunderBlogs® & News

Nearby

Air Quality

  Air Quality AQ Index Pollutant
Not available.

Snow Depth

Station Depth Elevation

Earthquake Activity

City Distance Mag. Time & Date
Minimum magnitude displayed is 2.5.

Coastal Water Temperatures

Place Temperature

Stations

Nearby Weather Stations

Station Location Temp. Windchill Dew Point Humidity Wind Precip. Elev Updated Type